createdAt,value
2023-02-19T00:03:32.689Z,5.09
2023-02-19T00:08:37.374Z,3.52
2023-02-19T00:13:43.157Z,4.79
2023-02-19T00:18:46.662Z,7.19
2023-02-19T00:23:55.368Z,8.37
2023-02-19T00:28:59.099Z,5.84
2023-02-19T00:34:05.484Z,4.69
2023-02-19T00:39:11.182Z,7.87
2023-02-19T00:44:15.289Z,7.06
2023-02-19T00:49:21.515Z,4.48
2023-02-19T00:54:24.719Z,4.54
2023-02-19T00:59:27.717Z,7.79
2023-02-19T01:04:30.872Z,6.46
2023-02-19T01:09:34.032Z,3.98
2023-02-19T01:14:37.043Z,5.00
2023-02-19T01:19:40.052Z,7.93
2023-02-19T01:24:43.159Z,5.98
2023-02-19T01:29:46.264Z,4.03
2023-02-19T01:34:49.163Z,6.61
2023-02-19T01:39:52.172Z,7.51
2023-02-19T01:45:21.191Z,4.75
2023-02-19T01:50:28.398Z,3.48
2023-02-19T01:55:32.903Z,6.27
2023-02-19T02:00:37.175Z,8.52
2023-02-19T02:05:44.495Z,6.54
2023-02-19T02:10:47.847Z,4.57
2023-02-19T02:16:01.374Z,4.96
2023-02-19T02:21:27.918Z,7.73
2023-02-19T02:26:40.134Z,7.47
2023-02-19T02:31:51.161Z,5.23
2023-02-19T02:36:56.487Z,5.24
2023-02-19T02:42:19.468Z,8.24
2023-02-19T02:47:48.594Z,7.82
2023-02-19T02:53:18.731Z,5.44
2023-02-19T02:58:24.909Z,6.76
2023-02-19T03:03:31.418Z,8.49
2023-02-19T03:08:40.710Z,7.07
2023-02-19T03:14:02.702Z,5.16
2023-02-19T03:19:21.814Z,5.43
2023-02-19T03:24:49.778Z,7.96
2023-02-19T03:29:57.436Z,7.32
2023-02-19T03:35:06.339Z,5.33
2023-02-19T03:40:09.979Z,6.78
2023-02-19T03:45:37.135Z,8.63
2023-02-19T03:50:46.891Z,6.02
2023-02-19T03:55:58.813Z,5.67
2023-02-19T04:01:09.946Z,7.99
2023-02-19T04:06:17.728Z,8.11
2023-02-19T04:11:23.290Z,5.95
2023-02-19T04:16:29.937Z,7.13
2023-02-19T04:21:35.253Z,7.93
2023-02-19T04:26:39.253Z,5.81
2023-02-19T04:31:42.315Z,5.45
2023-02-19T04:36:45.288Z,7.65
2023-02-19T04:41:48.882Z,6.63
2023-02-19T04:46:51.805Z,5.24
2023-02-19T04:51:54.989Z,7.11
2023-02-19T04:56:57.936Z,7.60
2023-02-19T05:02:00.932Z,5.48
2023-02-19T05:07:03.933Z,6.20
2023-02-19T05:12:07.254Z,7.73
2023-02-19T05:17:10.465Z,5.75
2023-02-19T05:22:13.470Z,4.31
2023-02-19T05:27:16.572Z,5.53
2023-02-19T05:32:19.480Z,7.18
2023-02-19T05:37:22.484Z,7.97
2023-02-19T05:42:25.496Z,6.21
2023-02-19T05:47:28.503Z,4.47
2023-02-19T05:52:31.505Z,4.78
2023-02-19T05:57:34.383Z,7.01
2023-02-19T06:02:37.524Z,7.63
2023-02-19T06:07:41.803Z,5.56
2023-02-19T06:12:45.030Z,5.27
2023-02-19T06:17:48.593Z,8.15
2023-02-19T06:22:52.120Z,7.25
2023-02-19T06:27:55.211Z,5.21
2023-02-19T06:32:58.333Z,5.49
2023-02-19T06:38:01.247Z,8.27
2023-02-19T06:43:04.554Z,7.67
2023-02-19T06:48:07.656Z,5.71
2023-02-19T06:53:11.887Z,8.06
2023-02-19T06:58:14.794Z,8.70
2023-02-19T07:03:17.900Z,6.39
2023-02-19T07:08:21.187Z,6.95
2023-02-19T07:13:27.079Z,8.58
2023-02-19T07:18:30.573Z,6.42
2023-02-19T07:23:34.077Z,7.45
2023-02-19T07:28:37.029Z,8.81
2023-02-19T07:33:40.029Z,6.83
2023-02-19T07:38:43.245Z,6.98
2023-02-19T07:43:46.250Z,9.26
2023-02-19T07:48:49.255Z,7.32
2023-02-19T07:53:52.571Z,7.01
2023-02-19T07:58:55.677Z,9.15
2023-02-19T08:03:58.800Z,7.71
2023-02-19T08:09:01.804Z,6.89
2023-02-19T08:14:04.846Z,9.68
2023-02-19T08:19:07.912Z,8.83
2023-02-19T08:24:11.116Z,7.40
2023-02-19T08:29:14.131Z,10.04
2023-02-19T08:34:17.238Z,8.49
2023-02-19T08:39:21.232Z,6.93
2023-02-19T08:44:24.475Z,9.00
2023-02-19T08:49:27.797Z,9.51
2023-02-19T08:54:30.997Z,7.49
2023-02-19T08:59:34.208Z,9.31
2023-02-19T09:04:38.136Z,8.05
2023-02-19T09:09:41.248Z,8.01
2023-02-19T09:14:44.557Z,9.50
2023-02-19T09:19:49.422Z,7.85
2023-02-19T09:24:54.059Z,9.52
2023-02-19T09:29:57.169Z,8.17
2023-02-19T09:35:00.276Z,9.22
2023-02-19T09:40:03.315Z,8.89
2023-02-19T09:45:06.726Z,7.88
2023-02-19T09:50:14.947Z,9.42
2023-02-19T09:55:42.649Z,8.67
2023-02-19T10:00:49.162Z,7.48
2023-02-19T10:05:54.127Z,8.62
2023-02-19T10:10:57.161Z,7.98
2023-02-19T10:16:04.238Z,7.32
2023-02-19T10:21:07.738Z,8.09
2023-02-19T10:26:10.784Z,7.08
2023-02-19T10:31:23.408Z,6.72
2023-02-19T10:36:33.861Z,6.50
2023-02-19T10:41:44.013Z,8.08
2023-02-19T10:46:52.944Z,7.79
2023-02-19T10:51:59.109Z,7.21
2023-02-19T10:57:25.980Z,7.17
2023-02-19T11:02:30.924Z,7.26
2023-02-19T11:07:34.335Z,7.21
2023-02-19T11:12:37.451Z,7.17
2023-02-19T11:17:40.648Z,7.06
2023-02-19T11:22:49.279Z,6.74
2023-02-19T11:27:55.359Z,6.65
2023-02-19T11:33:17.447Z,6.71
2023-02-19T11:38:21.721Z,6.89
2023-02-19T11:43:54.367Z,7.06
2023-02-19T11:49:06.691Z,7.18
2023-02-19T11:54:29.563Z,6.89
2023-02-19T11:59:44.189Z,6.86
2023-02-19T12:05:23.160Z,6.62
2023-02-19T12:10:58.050Z,6.23
2023-02-19T12:16:29.333Z,6.02
2023-02-19T12:21:46.446Z,6.07
2023-02-19T12:27:01.744Z,6.34
2023-02-19T12:32:23.593Z,6.61
2023-02-19T12:37:38.484Z,6.73
2023-02-19T12:43:16.019Z,6.61
2023-02-19T12:48:34.466Z,6.27
2023-02-19T12:54:20.993Z,5.97
2023-02-19T12:59:26.773Z,5.79
2023-02-19T13:05:01.291Z,5.83
2023-02-19T13:10:34.080Z,5.95
2023-02-19T13:15:42.041Z,6.08
2023-02-19T13:20:49.419Z,5.95
2023-02-19T13:26:30.654Z,5.65
2023-02-19T13:32:08.264Z,5.45
2023-02-19T13:37:12.437Z,5.38
2023-02-19T13:42:26.170Z,5.32
2023-02-19T13:48:23.442Z,5.14
2023-02-19T13:53:51.940Z,4.91
2023-02-19T13:59:01.621Z,4.72
2023-02-19T14:04:19.715Z,4.61
2023-02-19T14:09:35.545Z,4.48
2023-02-19T14:14:39.819Z,4.31
2023-02-19T14:19:43.628Z,4.14
2023-02-19T14:24:50.084Z,3.98
2023-02-19T14:29:55.996Z,3.84
2023-02-19T14:35:01.730Z,3.82
2023-02-19T14:40:08.601Z,3.92
2023-02-19T14:45:19.169Z,4.02
2023-02-19T14:50:30.854Z,4.08
2023-02-19T14:55:39.879Z,4.05
2023-02-19T15:00:45.085Z,3.90
2023-02-19T15:05:58.615Z,3.76
2023-02-19T15:11:09.882Z,3.63
2023-02-19T15:16:25.631Z,3.50
2023-02-19T15:21:36.396Z,3.32
2023-02-19T15:26:44.596Z,3.15
2023-02-19T15:31:58.444Z,3.03
2023-02-19T15:37:07.562Z,2.96
2023-02-19T15:42:25.483Z,2.89
2023-02-19T15:47:42.286Z,2.76
2023-02-19T15:53:10.477Z,2.57
2023-02-19T15:58:34.754Z,2.36
2023-02-19T16:03:40.060Z,2.18
2023-02-19T16:09:06.755Z,2.07
2023-02-19T16:14:31.804Z,1.93
2023-02-19T16:19:45.114Z,1.73
2023-02-19T16:24:56.243Z,1.53
2023-02-19T16:30:25.683Z,1.37
2023-02-19T16:35:42.395Z,1.21
2023-02-19T16:40:45.498Z,1.05
2023-02-19T16:45:48.547Z,0.88
2023-02-19T16:50:51.609Z,0.68
2023-02-19T16:55:54.611Z,0.53
2023-02-19T17:00:57.856Z,0.38
2023-02-19T17:06:00.828Z,1.10
2023-02-19T17:11:07.222Z,4.28
2023-02-19T17:16:18.335Z,4.90
2023-02-19T17:21:23.042Z,2.97
2023-02-19T17:26:29.601Z,1.85
2023-02-19T17:31:34.113Z,1.17
2023-02-19T17:36:38.241Z,0.75
2023-02-19T17:41:41.438Z,0.46
2023-02-19T17:46:47.074Z,0.26
2023-02-19T17:51:50.205Z,0.10
2023-02-19T17:56:53.223Z,0.00
2023-02-19T18:01:56.329Z,1.88
2023-02-19T18:06:59.432Z,3.60
2023-02-19T18:12:02.848Z,2.20
2023-02-19T18:17:06.012Z,1.35
2023-02-19T18:22:09.198Z,0.88
2023-02-19T18:27:12.487Z,0.59
2023-02-19T18:32:15.492Z,0.39
2023-02-19T18:37:19.668Z,0.29
2023-02-19T18:42:23.010Z,0.55
2023-02-19T18:47:26.369Z,3.30
2023-02-19T18:52:29.377Z,2.76
2023-02-19T18:57:32.462Z,1.64
2023-02-19T19:02:48.374Z,1.05
2023-02-19T19:07:54.533Z,0.65
2023-02-19T19:12:58.710Z,1.33
2023-02-19T19:18:03.037Z,3.73
2023-02-19T19:23:06.554Z,2.85
2023-02-19T19:28:09.682Z,1.80
2023-02-19T19:33:14.217Z,1.26
2023-02-19T19:38:17.824Z,1.00
2023-02-19T19:43:20.832Z,2.76
2023-02-19T19:48:27.633Z,4.57
2023-02-19T19:53:30.732Z,3.27
2023-02-19T19:58:34.750Z,2.35
2023-02-19T20:03:39.675Z,1.83
2023-02-19T20:08:42.718Z,1.49
2023-02-19T20:13:45.728Z,1.76
2023-02-19T20:18:48.736Z,3.74
2023-02-19T20:23:52.065Z,3.07
2023-02-19T20:28:56.137Z,2.29
2023-02-19T20:33:59.312Z,1.94
2023-02-19T20:39:02.506Z,3.65
2023-02-19T20:44:06.132Z,5.34
2023-02-19T20:49:09.655Z,3.89
2023-02-19T20:54:13.271Z,2.92
2023-02-19T20:59:20.872Z,2.71
2023-02-19T21:04:24.389Z,4.57
2023-02-19T21:09:27.297Z,4.10
2023-02-19T21:14:30.402Z,3.06
2023-02-19T21:19:33.414Z,2.83
2023-02-19T21:24:36.929Z,4.97
2023-02-19T21:29:39.957Z,5.64
2023-02-19T21:34:43.148Z,3.84
2023-02-19T21:39:47.282Z,3.66
2023-02-19T21:44:50.490Z,5.66
2023-02-19T21:49:53.601Z,4.78
2023-02-19T21:54:56.820Z,3.32
2023-02-19T21:59:59.824Z,4.07
2023-02-19T22:05:03.443Z,7.20
2023-02-19T22:10:08.816Z,5.67
2023-02-19T22:15:12.321Z,3.83
2023-02-19T22:20:17.385Z,3.79
2023-02-19T22:25:20.377Z,6.07
2023-02-19T22:30:23.565Z,5.89
2023-02-19T22:35:27.213Z,4.03
2023-02-19T22:40:30.207Z,5.15
2023-02-19T22:45:33.256Z,6.16
2023-02-19T22:50:36.330Z,4.31
2023-02-19T22:55:39.439Z,4.91
2023-02-19T23:00:42.442Z,5.67
2023-02-19T23:05:45.346Z,4.42
2023-02-19T23:10:48.461Z,5.91
2023-02-19T23:15:51.470Z,5.21
2023-02-19T23:20:54.579Z,4.48
2023-02-19T23:25:57.597Z,6.18
2023-02-19T23:31:00.864Z,5.07
2023-02-19T23:36:05.094Z,5.31
2023-02-19T23:41:12.244Z,6.37
2023-02-19T23:46:17.905Z,4.77
2023-02-19T23:51:21.138Z,5.83
2023-02-19T23:56:25.808Z,6.49
